Time;durP1;ratioP1;P1;durP2;ratioP2;P2;SDS_P1;SDS_P2;PMS_P1;PMS_P2;Temp;Humidity;BMP_temperature;BMP_pressure;BME280_temperature;BME280_humidity;BME280_pressure;Samples;Min_cycle;Max_cycle;Signal;HPM_P1;HPM_P2
2022/10/04 00:02:30;;;;;;;;;4.00;3.00;;;;;11.03;86.16;99883.06;6279008;20;2747164;-52
2022/10/04 00:05:15;;;;;;;;;6.00;4.00;;;;;11.10;86.08;99881.75;6276543;20;2752372;-53
2022/10/04 00:07:56;;;;;;;;;7.00;4.00;;;;;10.84;87.83;99876.09;6282429;20;2756588;-50
2022/10/04 00:10:33;;;;;;;;;5.00;5.00;;;;;10.74;88.34;99873.13;6284787;20;2747389;-49
2022/10/04 00:13:06;;;;;;;;;3.00;3.00;;;;;10.82;88.31;99871.78;6282271;20;2734657;-49
2022/10/04 00:15:38;;;;;;;;;3.00;3.00;;;;;10.81;88.33;99870.94;6280446;20;2734672;-51
2022/10/04 00:18:39;;;;;;;;;4.50;3.00;;;;;11.00;87.10;99873.38;6278676;20;2746135;-51
2022/10/04 00:21:10;;;;;;;;;4.00;3.00;;;;;11.27;85.45;99878.00;6317584;20;2737894;-51
2022/10/04 00:23:38;;;;;;;;;4.00;3.00;;;;;11.27;85.52;99872.66;6313280;20;2742986;-50
2022/10/04 00:26:28;;;;;;;;;3.00;2.00;;;;;11.11;86.25;99873.59;6277522;20;2753444;-54
2022/10/04 00:28:56;;;;;;;;;6.00;4.50;;;;;11.16;86.23;99876.88;6277921;20;2750318;-53
2022/10/04 00:31:26;;;;;;;;;4.00;4.00;;;;;11.17;85.41;99875.06;6276768;20;2753432;-51
2022/10/04 00:34:18;;;;;;;;;4.00;4.00;;;;;11.13;86.14;99877.03;6296681;20;1817617;-52
2022/10/04 00:36:56;;;;;;;;;7.00;2.50;;;;;10.91;86.75;99872.09;6312712;20;2746164;-51
2022/10/04 00:39:32;;;;;;;;;5.50;4.00;;;;;11.12;86.04;99879.84;6284512;20;2756595;-52
2022/10/04 00:42:38;;;;;;;;;3.00;3.00;;;;;11.16;85.95;99874.19;6287085;20;2745146;-53
2022/10/04 00:45:40;;;;;;;;;4.50;3.00;;;;;11.18;85.71;99874.09;6283756;20;2745084;-53
2022/10/04 00:48:10;;;;;;;;;6.00;3.00;;;;;11.07;85.78;99880.09;6281381;20;2750315;-52
2022/10/04 00:50:46;;;;;;;;;2.00;2.00;;;;;11.30;85.41;99869.78;6282628;20;2745093;-51
2022/10/04 00:53:57;;;;;;;;;5.00;3.00;;;;;11.19;85.40;99862.41;6283232;20;2752489;-51
2022/10/04 00:56:49;;;;;;;;;6.00;5.00;;;;;10.91;87.18;99864.06;6284356;20;2754634;-50
2022/10/04 00:59:41;;;;;;;;;5.00;3.00;;;;;10.95;86.79;99854.88;6283690;20;2737860;-53
2022/10/04 01:02:37;;;;;;;;;7.00;4.00;;;;;10.88;87.42;99860.69;6287276;20;2746125;-52
2022/10/04 01:05:22;;;;;;;;;4.00;4.00;;;;;10.94;87.16;99863.00;6281120;20;2754540;-54
2022/10/04 01:08:17;;;;;;;;;6.00;4.00;;;;;10.89;87.99;99862.41;6284640;20;2752437;-52
2022/10/04 01:10:51;;;;;;;;;4.00;4.00;;;;;10.87;88.05;99856.25;6281990;20;2750415;-50
2022/10/04 01:13:35;;;;;;;;;4.50;4.00;;;;;10.69;88.82;99856.41;6281082;20;2752600;-52
2022/10/04 01:16:23;;;;;;;;;5.75;3.25;;;;;10.76;88.54;99852.38;6298529;20;1817034;-51
2022/10/04 01:18:51;;;;;;;;;4.00;4.00;;;;;10.88;88.13;99860.69;6313404;20;2756679;-50
2022/10/04 01:21:19;;;;;;;;;3.00;3.00;;;;;10.79;89.20;99850.50;6280138;20;2752327;-54
2022/10/04 01:24:20;;;;;;;;;3.00;3.00;;;;;10.85;88.21;99851.00;6302981;20;1811150;-52
2022/10/04 01:26:48;;;;;;;;;6.00;5.00;;;;;10.96;87.58;99853.03;6280292;20;2754588;-52
2022/10/04 01:29:29;;;;;;;;;3.75;3.75;;;;;10.96;87.48;99855.72;6299192;20;1804558;-50
2022/10/04 01:32:00;;;;;;;;;8.00;5.00;;;;;10.98;87.90;99851.13;6314019;20;2752475;-51
2022/10/04 01:34:29;;;;;;;;;8.50;4.00;;;;;10.89;88.19;99851.66;6281463;20;2751319;-51
2022/10/04 01:36:59;;;;;;;;;3.00;3.00;;;;;10.95;88.28;99853.97;6284721;20;2735813;-51
2022/10/04 01:39:28;;;;;;;;;5.00;5.00;;;;;10.96;88.03;99855.72;6283324;20;2750427;-53
2022/10/04 01:42:31;;;;;;;;;5.00;4.00;;;;;11.04;87.89;99855.25;6280945;20;2756636;-50
2022/10/04 01:45:14;;;;;;;;;8.60;4.00;;;;;10.99;87.95;99860.91;6301835;20;2751352;-51
2022/10/04 01:47:52;;;;;;;;;4.00;3.00;;;;;10.98;88.23;99857.34;6316509;20;2739885;-51
2022/10/04 01:50:54;;;;;;;;;3.25;3.00;;;;;10.86;89.40;99859.91;6297893;20;1793101;-51
2022/10/04 01:53:30;;;;;;;;;6.00;4.00;;;;;10.74;90.24;99843.59;6313901;20;2749402;-51
2022/10/04 01:56:16;;;;;;;;;5.00;3.50;;;;;10.81;89.88;99845.91;6281935;20;2750254;-48
2022/10/04 01:59:20;;;;;;;;;5.50;2.50;;;;;10.69;90.05;99845.69;6286452;20;2747624;-49
2022/10/04 02:02:51;;;;;;;;;6.00;3.00;;;;;10.84;89.97;99853.75;6278618;20;2737829;-53
2022/10/04 02:05:59;;;;;;;;;4.00;3.00;;;;;10.82;89.89;99852.97;6283266;20;2735659;-50
2022/10/04 02:08:33;;;;;;;;;7.00;5.00;;;;;10.71;90.43;99846.44;6282612;20;2748622;-51
2022/10/04 02:11:05;;;;;;;;;3.25;3.00;;;;;10.72;90.55;99840.13;6298632;20;1806680;-53
2022/10/04 02:13:39;;;;;;;;;6.00;4.50;;;;;10.61;90.62;99830.97;6313262;20;2748180;-48
2022/10/04 02:16:11;;;;;;;;;5.00;3.50;;;;;10.55;91.71;99837.56;6279054;20;2747160;-52
2022/10/04 02:18:43;;;;;;;;;4.00;4.00;;;;;10.47;91.95;99835.31;6280490;20;2754499;-52
2022/10/04 02:21:13;;;;;;;;;3.50;3.50;;;;;10.67;91.68;99836.00;6283395;20;2754499;-49
2022/10/04 02:23:42;;;;;;;;;4.00;4.00;;;;;10.73;91.31;99831.09;6272751;20;2754472;-51
2022/10/04 02:26:11;;;;;;;;;5.50;4.50;;;;;10.65;91.87;99838.75;6280573;20;2748266;-53
2022/10/04 02:28:39;;;;;;;;;4.50;4.50;;;;;10.57;92.24;99821.38;6282425;20;2742975;-53
2022/10/04 02:33:58;;;;;;;;;6.50;5.00;;;;;10.65;92.33;99844.13;6277329;20;2747204;-50
2022/10/04 02:36:28;;;;;;;;;5.00;5.00;;;;;10.43;93.08;99832.94;6276343;20;2748225;-53
2022/10/04 02:39:34;;;;;;;;;6.00;4.00;;;;;10.43;93.13;99832.94;6281898;20;2750367;-49
2022/10/04 02:42:47;;;;;;;;;3.50;3.00;;;;;10.30;93.77;99835.47;6284180;20;2743051;-52
2022/10/04 02:45:37;;;;;;;;;6.00;3.50;;;;;10.31;94.21;99835.34;6279804;20;2754520;-50
2022/10/04 02:48:54;;;;;;;;;5.00;3.00;;;;;10.14;94.64;99835.47;6285426;20;2733686;-52
2022/10/04 02:51:36;;;;;;;;;4.00;4.00;;;;;10.16;95.20;99829.97;6278644;20;2752369;-51
2022/10/04 02:55:02;;;;;;;;;4.00;4.00;;;;;10.30;94.32;99832.78;6278117;20;2756539;-51
2022/10/04 02:57:33;;;;;;;;;3.50;3.00;;;;;10.24;94.66;99828.59;6279253;20;2742032;-50
2022/10/04 03:00:18;;;;;;;;;3.50;2.00;;;;;10.33;94.73;99833.47;6281620;20;2737801;-51
2022/10/04 03:03:24;;;;;;;;;6.00;5.00;;;;;10.32;95.38;99836.22;6281375;20;2742067;-51
2022/10/04 03:06:08;;;;;;;;;6.00;4.00;;;;;10.39;95.14;99837.59;6279759;20;2754449;-52
2022/10/04 03:08:44;;;;;;;;;4.00;4.00;;;;;10.31;95.15;99843.41;6281573;20;2754491;-54
2022/10/04 03:11:17;;;;;;;;;5.00;4.00;;;;;10.23;95.94;99848.31;6282322;20;2754620;-52
2022/10/04 03:13:50;;;;;;;;;4.00;4.00;;;;;10.24;96.65;99839.34;6279409;20;2756651;-53
2022/10/04 03:16:19;;;;;;;;;8.50;4.00;;;;;10.26;96.42;99837.41;6276899;20;2755481;-51
2022/10/04 03:18:53;;;;;;;;;5.40;4.60;;;;;10.23;96.36;99837.59;6301050;20;2742985;-48
2022/10/04 03:21:22;;;;;;;;;5.00;5.00;;;;;10.23;96.50;99837.59;6312843;20;2744103;-51
2022/10/04 03:23:52;;;;;;;;;5.00;4.00;;;;;10.01;97.51;99837.97;6283995;20;2635154;-53
2022/10/04 03:26:45;;;;;;;;;10.00;7.00;;;;;9.94;98.29;99838.41;6304143;20;2769151;-53
2022/10/04 03:29:16;;;;;;;;;19.00;13.33;;;;;9.89;97.84;99836.81;6277350;20;3542960;-52
2022/10/04 03:31:49;;;;;;;;;10.50;8.50;;;;;9.91;98.26;99836.75;6310590;20;2749343;-50
2022/10/04 03:34:35;;;;;;;;;10.57;5.71;;;;;9.80;98.63;99840.03;6319625;20;1804494;-54
2022/10/04 03:37:10;;;;;;;;;5.00;5.00;;;;;9.70;99.49;99838.81;6311705;20;2749264;-52
2022/10/04 03:39:45;;;;;;;;;6.00;6.00;;;;;9.73;100.00;99844.00;6277915;20;2750279;-51
2022/10/04 03:42:27;;;;;;;;;6.50;6.00;;;;;9.80;99.51;99834.69;6280903;20;2732635;-53
2022/10/04 03:45:14;;;;;;;;;4.00;4.00;;;;;9.91;98.63;99830.53;6278268;20;2751340;-51
2022/10/04 03:47:47;;;;;;;;;5.50;5.50;;;;;9.79;99.02;99832.94;6279382;20;2744043;-50
2022/10/04 03:50:32;;;;;;;;;10.00;7.00;;;;;9.75;99.58;99833.22;6277649;20;2763869;-51
2022/10/04 03:53:31;;;;;;;;;8.00;7.00;;;;;9.73;100.00;99837.78;6274393;20;2733757;-52
2022/10/04 03:56:17;;;;;;;;;6.60;5.60;;;;;9.73;100.00;99849.38;6318126;20;1804511;-59
2022/10/04 03:58:46;;;;;;;;;9.50;7.50;;;;;9.74;100.00;99858.28;6328083;20;1808800;-58
2022/10/04 04:01:29;;;;;;;;;9.43;7.29;;;;;9.84;100.00;99857.66;6353333;20;1800344;-59
2022/10/04 04:04:22;;;;;;;;;10.40;9.20;;;;;9.73;100.00;99854.72;6334107;20;2773323;-59
2022/10/04 04:07:18;;;;;;;;;10.00;9.00;;;;;9.86;100.00;99853.09;6275222;20;2764876;-58
2022/10/04 04:10:04;;;;;;;;;9.00;9.00;;;;;9.83;100.00;99858.63;6294962;20;1802475;-58
2022/10/04 04:13:10;;;;;;;;;12.60;11.20;;;;;9.73;100.00;99851.19;6335576;20;2791930;-59
2022/10/04 04:15:42;;;;;;;;;9.00;7.00;;;;;9.85;100.00;99834.44;6275595;20;2746103;-59
2022/10/04 04:18:36;;;;;;;;;6.00;6.00;;;;;9.72;100.00;99831.56;6283824;20;2739862;-58
2022/10/04 04:21:06;;;;;;;;;7.00;6.00;;;;;9.89;100.00;99839.50;6278946;20;2732570;-58
2022/10/04 04:23:52;;;;;;;;;10.50;7.00;;;;;9.88;100.00;99828.88;6276610;20;2762310;-59
2022/10/04 04:26:27;;;;;;;;;14.00;10.00;;;;;9.89;100.00;99838.66;6276255;20;2779549;-56
2022/10/04 04:29:27;;;;;;;;;6.00;6.00;;;;;9.66;100.00;99832.78;6281892;20;2726521;-57
2022/10/04 04:32:12;;;;;;;;;7.00;6.00;;;;;9.64;100.00;99836.50;6278737;20;2734675;-58
2022/10/04 04:35:30;;;;;;;;;7.00;7.00;;;;;9.77;100.00;99860.78;6278347;20;2745169;-54
2022/10/04 04:38:24;;;;;;;;;10.00;7.50;;;;;9.77;100.00;99853.63;6277781;20;2757654;-54
2022/10/04 04:40:54;;;;;;;;;15.20;9.20;;;;;9.65;100.00;99863.19;6304059;20;2771230;-58
2022/10/04 04:43:26;;;;;;;;;8.50;7.00;;;;;9.62;100.00;99865.19;6279446;20;2734661;-58
2022/10/04 04:45:58;;;;;;;;;12.60;11.00;;;;;9.58;100.00;99860.94;6333495;20;2790496;-59
2022/10/04 04:48:52;;;;;;;;;12.67;11.00;;;;;9.55;100.00;99861.97;6281224;20;2789906;-49
2022/10/04 04:51:24;;;;;;;;;12.00;10.60;;;;;9.60;100.00;99861.72;6330336;20;2783613;-51
2022/10/04 04:53:56;;;;;;;;;8.60;8.60;;;;;9.66;100.00;99864.06;6300665;20;2752430;-53
2022/10/04 04:56:28;;;;;;;;;10.50;7.50;;;;;9.72;100.00;99868.25;6305072;20;2755552;-48
2022/10/04 04:59:02;;;;;;;;;12.00;10.00;;;;;9.66;100.00;99874.78;6273778;20;2789933;-49
2022/10/04 05:01:46;;;;;;;;;12.60;6.80;;;;;9.65;100.00;99876.59;6302728;20;2755526;-52
2022/10/04 05:04:22;;;;;;;;;14.60;9.40;;;;;9.61;100.00;99871.47;6300525;20;2796244;-48
2022/10/04 05:07:15;;;;;;;;;9.40;8.00;;;;;9.65;100.00;99879.28;6302157;20;2745189;-49
2022/10/04 05:09:43;;;;;;;;;13.00;9.50;;;;;9.67;100.00;99869.34;6309016;20;2771116;-53
2022/10/04 05:12:22;;;;;;;;;12.50;12.00;;;;;9.75;100.00;99881.47;6276980;20;2784811;-51
2022/10/04 05:14:54;;;;;;;;;12.80;10.60;;;;;9.84;100.00;99879.13;6302069;20;2784678;-54
2022/10/04 05:17:33;;;;;;;;;12.00;11.40;;;;;9.77;100.00;99877.75;6300878;20;2791989;-49
2022/10/04 05:20:03;;;;;;;;;11.67;10.33;;;;;9.80;100.00;99877.59;6280374;20;2784732;-50
2022/10/04 05:22:33;;;;;;;;;8.00;7.50;;;;;9.88;100.00;99875.34;6315678;20;2731592;-51
2022/10/04 05:25:32;;;;;;;;;12.00;8.00;;;;;9.83;100.00;99882.78;6284135;20;2772242;-52
2022/10/04 05:28:02;;;;;;;;;14.00;9.60;;;;;9.92;100.00;99881.38;6307887;20;2776387;-52
2022/10/04 05:31:30;;;;;;;;;13.00;10.00;;;;;10.07;100.00;99891.25;6304311;20;2777365;-52
2022/10/04 05:33:58;;;;;;;;;9.33;7.00;;;;;10.38;100.00;99894.06;6280983;20;2751466;-51
2022/10/04 05:37:41;;;;;;;;;12.40;10.20;;;;;10.35;99.69;99886.16;6336537;20;2761814;-50
2022/10/04 05:40:35;;;;;;;;;8.00;7.20;;;;;10.50;99.71;99898.72;6306118;20;2736786;-49
2022/10/04 05:43:30;;;;;;;;;11.50;8.00;;;;;10.45;99.32;99904.38;6313717;20;2761774;-48
2022/10/04 05:46:30;;;;;;;;;13.33;11.67;;;;;10.61;98.74;99901.66;6285141;20;2798400;-50
2022/10/04 05:49:11;;;;;;;;;11.29;10.29;;;;;10.60;99.21;99899.91;6354890;20;1806608;-49
2022/10/04 05:52:01;;;;;;;;;10.00;7.40;;;;;10.88;98.70;99914.41;6336716;20;2749403;-52
2022/10/04 05:54:34;;;;;;;;;11.67;10.67;;;;;11.03;97.83;99916.16;6309831;20;2789899;-53
2022/10/04 05:57:53;;;;;;;;;21.00;18.00;;;;;11.16;97.07;99925.25;6306941;20;2479430;-50
2022/10/04 06:00:59;;;;;;;;;12.00;7.50;;;;;11.35;95.88;99929.50;6283878;20;2767391;-51
2022/10/04 06:03:52;;;;;;;;;12.40;9.40;;;;;11.80;94.74;99930.31;6300423;20;2781713;-52
2022/10/04 06:07:23;;;;;;;;;9.00;7.50;;;;;12.00;93.50;99926.38;6278606;20;2727467;-53
2022/10/04 06:10:14;;;;;;;;;8.20;7.60;;;;;12.20;92.21;99935.88;6307461;20;2735763;-51
2022/10/04 06:13:39;;;;;;;;;7.80;7.80;;;;;12.42;90.81;99938.91;6336646;20;2748256;-52
2022/10/04 06:17:03;;;;;;;;;6.00;6.00;;;;;12.45;90.68;99930.66;6312604;20;2735726;-51
2022/10/04 06:19:40;;;;;;;;;7.00;7.00;;;;;12.56;91.53;99937.13;6283346;20;2748222;-52
2022/10/04 06:22:22;;;;;;;;;8.00;8.00;;;;;12.37;91.25;99935.63;6287331;20;2735812;-50
2022/10/04 06:25:25;;;;;;;;;8.80;8.80;;;;;12.73;90.70;99936.91;6304466;20;2756616;-50
2022/10/04 06:28:32;;;;;;;;;10.00;9.00;;;;;12.64;90.00;99937.53;6308982;20;2775338;-54
2022/10/04 06:31:46;;;;;;;;;8.00;7.00;;;;;12.90;88.65;99936.63;6308879;20;2746109;-54
2022/10/04 06:34:50;;;;;;;;;14.00;10.00;;;;;13.37;87.71;99937.06;6307060;20;2788893;-52
2022/10/04 06:37:36;;;;;;;;;7.33;7.33;;;;;13.38;87.17;99945.06;6283984;20;3456590;-54
2022/10/04 06:40:42;;;;;;;;;9.80;9.00;;;;;13.80;85.39;99947.59;6306910;20;2749374;-53
2022/10/04 06:43:37;;;;;;;;;11.50;9.00;;;;;13.87;85.60;99950.69;6312682;20;2767127;-51
2022/10/04 06:47:00;;;;;;;;;8.00;7.00;;;;;13.87;84.94;99956.94;6284118;20;2741961;-51
2022/10/04 06:49:52;;;;;;;;;8.43;7.14;;;;;13.30;87.37;99965.47;6323385;20;3461735;-48
2022/10/04 06:53:51;;;;;;;;;7.00;7.00;;;;;13.32;87.13;99976.97;6288243;20;3457583;-52
2022/10/04 06:57:11;;;;;;;;;8.60;8.60;;;;;13.32;88.27;99977.88;6357219;20;2748246;-46
2022/10/04 07:00:13;;;;;;;;;6.00;6.00;;;;;13.15;87.89;99980.81;6380731;20;3449328;-52
2022/10/04 07:02:58;;;;;;;;;7.00;6.00;;;;;12.81;89.41;99988.44;6339209;20;2733036;-52
2022/10/04 07:05:43;;;;;;;;;6.50;6.50;;;;;12.99;89.62;99998.97;6303598;20;2746094;-51
2022/10/04 07:08:29;;;;;;;;;8.00;8.00;;;;;12.88;90.02;99997.84;6306894;20;2736745;-50
2022/10/04 07:11:25;;;;;;;;;12.00;8.00;;;;;12.90;90.75;99993.22;6306922;20;2760691;-52
2022/10/04 07:14:23;;;;;;;;;8.00;8.00;;;;;12.74;91.05;99985.31;6304493;20;2753099;-51
2022/10/04 07:17:02;;;;;;;;;9.00;8.00;;;;;12.67;91.49;99969.63;6310616;20;2748245;-49
2022/10/04 07:19:48;;;;;;;;;8.40;8.40;;;;;12.65;91.69;99988.59;6330921;20;2752391;-53
2022/10/04 07:22:50;;;;;;;;;11.00;9.00;;;;;12.75;91.45;99986.16;6335617;20;2773246;-50
2022/10/04 07:25:33;;;;;;;;;8.71;8.14;;;;;12.84;90.52;99990.94;6350576;20;3453418;-50
2022/10/04 07:31:14;;;;;;;;;8.80;8.60;;;;;12.84;90.60;99992.75;6327223;20;2728483;-51
2022/10/04 07:33:48;;;;;;;;;8.00;8.00;;;;;13.03;90.16;99987.00;6330436;20;2746152;-52
2022/10/04 07:36:58;;;;;;;;;10.00;10.00;;;;;13.09;89.69;99978.53;6302084;20;2786813;-52
2022/10/04 07:39:58;;;;;;;;;10.50;10.00;;;;;13.41;89.12;99987.16;6302820;20;2776406;-50
2022/10/04 07:42:45;;;;;;;;;8.00;8.00;;;;;13.29;88.63;99974.50;6307572;20;2735768;-51
2022/10/04 07:45:33;;;;;;;;;8.00;8.00;;;;;13.42;89.56;99977.22;6305734;20;2746110;-51
2022/10/04 07:48:23;;;;;;;;;8.00;7.00;;;;;13.54;89.27;99973.69;6309362;20;2739928;-51
2022/10/04 07:51:17;;;;;;;;;8.00;7.00;;;;;13.54;88.40;99977.25;6307444;20;2739991;-52
2022/10/04 07:54:26;;;;;;;;;6.00;6.00;;;;;13.67;88.11;99973.72;6303959;20;2748298;-55
2022/10/04 07:58:15;;;;;;;;;11.67;8.00;;;;;13.68;88.02;99978.97;6291007;20;2754507;-54
2022/10/04 08:01:05;;;;;;;;;9.00;8.00;;;;;13.97;87.18;99974.22;6339781;20;2745092;-52
2022/10/04 08:04:39;;;;;;;;;11.00;8.00;;;;;13.68;87.72;99983.50;6307659;20;2777410;-53
2022/10/04 08:07:55;;;;;;;;;16.00;14.00;;;;;13.74;87.48;99983.94;6318490;20;3529651;-54
2022/10/04 08:11:18;;;;;;;;;8.00;8.00;;;;;13.96;87.53;99986.00;6342165;20;2754570;-56
2022/10/04 08:14:26;;;;;;;;;6.00;6.00;;;;;13.74;87.29;99983.94;6332454;20;2746153;-53
2022/10/04 08:17:37;;;;;;;;;8.43;6.43;;;;;13.68;87.10;99978.13;6379411;20;3459775;-54
2022/10/04 08:20:47;;;;;;;;;7.00;7.00;;;;;13.66;87.35;99990.84;6365405;20;2737848;-53
2022/10/04 08:23:31;;;;;;;;;5.00;5.00;;;;;14.25;84.52;99993.88;6338793;20;2741988;-54
2022/10/04 08:27:03;;;;;;;;;5.00;5.00;;;;;14.60;83.30;99999.44;6311093;20;2747279;-52
2022/10/04 08:30:07;;;;;;;;;7.00;7.00;;;;;14.84;82.00;100006.72;6307471;20;2736737;-53
2022/10/04 08:33:17;;;;;;;;;7.00;6.50;;;;;14.78;81.73;99999.91;6309563;20;2741973;-55
2022/10/04 08:36:17;;;;;;;;;5.00;5.00;;;;;14.54;80.62;100010.69;6312650;20;2737766;-53
2022/10/04 08:38:58;;;;;;;;;3.00;3.00;;;;;14.48;79.88;99989.47;6334969;20;2745123;-53
2022/10/04 08:42:15;;;;;;;;;6.00;5.00;;;;;14.79;79.62;99998.06;6342242;20;2741990;-51
2022/10/04 08:45:13;;;;;;;;;6.00;6.00;;;;;15.10;78.47;100007.47;6310354;20;2743003;-51
2022/10/04 08:48:23;;;;;;;;;5.00;4.00;;;;;15.30;75.85;100011.38;6307586;20;2744031;-48
2022/10/04 08:51:50;;;;;;;;;5.00;4.00;;;;;15.59;71.53;100012.72;6312685;20;2744029;-52
2022/10/04 08:55:06;;;;;;;;;3.00;3.00;;;;;16.12;66.70;100014.94;6310670;20;2751375;-51
2022/10/04 08:58:29;;;;;;;;;2.00;2.00;;;;;16.25;66.90;100025.66;6309868;20;2752403;-53
2022/10/04 09:01:37;;;;;;;;;3.00;3.00;;;;;16.11;69.18;100036.72;6310860;20;2755547;-54
2022/10/04 09:04:39;;;;;;;;;3.00;2.00;;;;;15.44;71.96;100031.97;6313671;20;2730496;-53
2022/10/04 09:07:43;;;;;;;;;4.00;4.00;;;;;15.38;72.86;100033.31;6310067;20;2732637;-56
2022/10/04 09:10:39;;;;;;;;;3.50;3.00;;;;;15.32;73.60;100033.75;6287745;20;2752395;-52
2022/10/04 09:13:48;;;;;;;;;7.00;4.00;;;;;15.21;74.98;100025.59;6286650;20;2750428;-55
2022/10/04 09:16:47;;;;;;;;;4.00;4.00;;;;;14.86;74.17;100023.69;6282800;20;2751428;-53
2022/10/04 09:19:55;;;;;;;;;6.00;4.00;;;;;15.23;73.80;100007.41;6291263;20;2747167;-51
2022/10/04 09:23:26;;;;;;;;;6.00;4.00;;;;;15.14;73.43;100012.53;6306995;20;2743001;-52
2022/10/04 09:26:32;;;;;;;;;3.00;3.00;;;;;14.97;72.30;100004.81;6319510;20;2735783;-54
2022/10/04 09:29:45;;;;;;;;;4.00;4.00;;;;;15.11;74.40;100015.47;6286199;20;2745075;-61
2022/10/04 09:32:58;;;;;;;;;4.00;4.00;;;;;15.05;73.05;100020.47;6289458;20;2752439;-61
2022/10/04 09:36:30;;;;;;;;;3.00;3.00;;;;;15.62;70.73;100021.59;6284888;20;2741040;-61
2022/10/04 09:39:54;;;;;;;;;4.00;4.00;;;;;16.19;68.15;100027.00;6281344;20;2752631;-61
2022/10/04 09:43:20;;;;;;;;;2.50;2.50;;;;;16.19;66.98;100023.41;6285601;20;2727491;-61
2022/10/04 09:46:20;;;;;;;;;0.00;0.00;;;;;16.46;64.75;100032.06;6288984;20;2737834;-61
2022/10/04 09:49:18;;;;;;;;;4.00;4.00;;;;;16.26;65.37;100032.78;6288829;20;2750347;-61
2022/10/04 09:52:28;;;;;;;;;1.00;1.00;;;;;16.52;64.33;100046.09;6286703;20;2737958;-60
2022/10/04 09:55:46;;;;;;;;;4.50;3.00;;;;;16.73;64.76;100060.63;6291882;20;2737829;-56
2022/10/04 09:59:11;;;;;;;;;2.00;1.00;;;;;16.69;63.78;100053.72;6285693;20;2729435;-52
2022/10/04 10:02:39;;;;;;;;;3.00;3.00;;;;;16.93;63.59;100056.34;6288522;20;2766083;-51
2022/10/04 10:05:47;;;;;;;;;9.50;8.00;;;;;16.94;61.51;100046.34;6281250;20;2750426;-48
2022/10/04 10:08:35;;;;;;;;;3.50;3.00;;;;;17.21;61.19;100060.31;6288512;20;2731521;-50
2022/10/04 10:15:15;;;;;;;;;6.00;3.00;;;;;16.95;62.20;100058.91;6286725;20;2735711;-53
2022/10/04 10:18:22;;;;;;;;;3.00;3.00;;;;;16.95;61.86;100058.91;6286232;20;2748209;-53
2022/10/04 10:21:46;;;;;;;;;3.00;3.00;;;;;17.19;61.38;100051.44;6287324;20;2726396;-54
2022/10/04 10:24:44;;;;;;;;;3.00;2.00;;;;;16.68;61.70;100058.28;6291198;20;2746110;-50
2022/10/04 10:27:57;;;;;;;;;5.00;2.00;;;;;17.09;63.23;100050.50;6286512;20;3450282;-49
2022/10/04 10:30:50;;;;;;;;;2.50;2.50;;;;;17.51;61.62;100054.19;6288840;20;2742041;-50
2022/10/04 10:34:18;;;;;;;;;3.50;2.50;;;;;17.30;61.47;100059.56;6289996;20;2752404;-50
2022/10/04 10:37:01;;;;;;;;;3.00;3.00;;;;;17.25;61.06;100060.94;6287689;20;2753410;-51
2022/10/04 10:40:26;;;;;;;;;3.00;3.00;;;;;17.29;62.01;100063.25;6283658;20;2754492;-53
2022/10/04 10:43:26;;;;;;;;;3.00;3.00;;;;;16.51;61.57;100066.03;6287852;20;2741945;-51
2022/10/04 10:46:41;;;;;;;;;2.50;2.50;;;;;17.41;59.72;100063.22;6289222;20;2744054;-51
2022/10/04 10:49:58;;;;;;;;;3.00;3.00;;;;;17.81;60.30;100052.59;6289931;20;2733665;-51
2022/10/04 10:53:13;;;;;;;;;2.50;2.50;;;;;17.20;61.27;100065.88;6287497;20;2753504;-53
2022/10/04 10:56:34;;;;;;;;;3.00;3.00;;;;;17.43;62.58;100074.81;6291048;20;2738833;-51
2022/10/04 10:59:49;;;;;;;;;3.00;3.00;;;;;17.62;61.02;100066.84;6289120;20;2733617;-51
2022/10/04 11:03:30;;;;;;;;;3.00;3.00;;;;;17.71;60.60;100066.03;6284641;20;2754484;-52
2022/10/04 11:07:12;;;;;;;;;3.00;3.00;;;;;17.90;60.94;100078.09;6307118;20;2732587;-53
2022/10/04 11:10:20;;;;;;;;;3.50;3.00;;;;;16.62;63.29;100074.19;6314443;20;2744186;-53
2022/10/04 11:13:40;;;;;;;;;3.00;3.00;;;;;17.27;62.88;100072.50;6292942;20;2734685;-53
2022/10/04 11:16:47;;;;;;;;;4.00;4.00;;;;;17.73;61.71;100069.50;6286015;20;2750309;-49
2022/10/04 11:19:43;;;;;;;;;5.00;4.00;;;;;17.43;61.08;100070.25;6287260;20;2754560;-54
2022/10/04 11:23:07;;;;;;;;;3.00;3.00;;;;;17.70;61.49;100077.06;6289683;20;2744112;-52
2022/10/04 11:26:05;;;;;;;;;5.00;3.00;;;;;17.36;61.57;100079.91;6284347;20;2733606;-49
2022/10/04 11:28:57;;;;;;;;;3.80;3.80;;;;;16.87;62.79;100084.78;6310027;20;2746132;-49
2022/10/04 11:32:01;;;;;;;;;8.60;7.20;;;;;17.35;61.26;100072.72;6305508;20;2739930;-51
2022/10/04 11:35:27;;;;;;;;;3.00;3.00;;;;;17.95;59.23;100075.84;6315220;20;2737821;-53
2022/10/04 11:39:01;;;;;;;;;4.00;4.00;;;;;18.01;60.08;100083.47;6288231;20;2734675;-56
2022/10/04 11:42:29;;;;;;;;;6.00;5.00;;;;;17.16;60.38;100081.53;6287617;20;2745085;-53
2022/10/04 11:45:38;;;;;;;;;6.00;4.00;;;;;16.73;62.94;100104.00;6280473;20;2747343;-53
2022/10/04 11:48:22;;;;;;;;;4.50;4.50;;;;;17.38;61.32;100087.91;6285527;20;2737803;-50
2022/10/04 11:51:24;;;;;;;;;4.00;4.00;;;;;17.70;61.55;100088.78;6283968;20;2756522;-49
2022/10/04 11:54:55;;;;;;;;;2.00;2.00;;;;;17.25;61.87;100091.66;6286396;20;2755564;-51
2022/10/04 11:57:37;;;;;;;;;3.00;3.00;;;;;17.27;58.76;100089.69;6284314;20;2737801;-54
2022/10/04 12:00:19;;;;;;;;;6.29;6.29;;;;;17.65;59.78;100082.00;6325578;20;3457680;-53
2022/10/04 12:03:20;;;;;;;;;4.60;4.60;;;;;17.32;61.95;100089.28;6336280;20;2747166;-49
2022/10/04 12:06:52;;;;;;;;;4.00;3.00;;;;;17.31;60.85;100088.41;6312111;20;2735777;-51
2022/10/04 12:10:08;;;;;;;;;1.50;1.50;;;;;17.34;60.79;100082.72;6287388;20;2724303;-51
2022/10/04 12:13:15;;;;;;;;;3.00;3.00;;;;;17.48;60.36;100078.00;6291834;20;2731543;-52
2022/10/04 12:16:04;;;;;;;;;3.00;3.00;;;;;17.68;60.14;100085.31;6284944;20;2743098;-51
2022/10/04 12:18:58;;;;;;;;;7.00;6.00;;;;;18.04;59.94;100090.50;6288498;20;2739859;-51
2022/10/04 12:21:57;;;;;;;;;1.33;1.33;;;;;18.04;57.04;100090.50;6284148;20;2731554;-51
2022/10/04 12:25:01;;;;;;;;;3.00;3.00;;;;;18.08;58.00;100090.09;6315263;20;2735726;-53
2022/10/04 12:28:11;;;;;;;;;5.00;4.00;;;;;17.82;59.67;100099.63;6289049;20;2754496;-51
2022/10/04 12:31:21;;;;;;;;;4.00;4.00;;;;;17.93;60.80;100088.69;6315489;20;2756686;-51
2022/10/04 12:34:13;;;;;;;;;3.20;3.20;;;;;18.10;58.82;100093.53;6308101;20;2739943;-49
2022/10/04 12:37:39;;;;;;;;;3.00;2.00;;;;;17.98;57.50;100091.88;6313477;20;2748210;-51
2022/10/04 12:40:59;;;;;;;;;2.00;2.00;;;;;17.56;58.24;100091.78;6311312;20;2743090;-51
2022/10/04 12:44:17;;;;;;;;;2.00;2.00;;;;;17.59;58.53;100091.56;6313383;20;2746260;-53
2022/10/04 12:47:22;;;;;;;;;2.00;2.00;;;;;17.55;58.79;100100.94;6319291;20;2746283;-56
2022/10/04 12:50:30;;;;;;;;;3.00;1.67;;;;;17.97;58.84;100085.56;6295873;20;2733611;-52
2022/10/04 12:53:35;;;;;;;;;3.00;2.00;;;;;18.08;59.00;100090.09;6318234;20;2742004;-52
2022/10/04 12:57:02;;;;;;;;;1.33;1.33;;;;;18.58;57.33;100089.38;6315082;20;2728453;-53
2022/10/04 12:59:45;;;;;;;;;2.00;2.00;;;;;18.38;57.66;100099.31;6310350;20;2744153;-51
2022/10/04 13:03:11;;;;;;;;;2.00;2.00;;;;;18.04;57.13;100095.94;6319587;20;2745080;-52
2022/10/04 13:05:46;;;;;;;;;3.67;2.00;;;;;18.20;56.31;100099.91;6320296;20;2744940;-52
2022/10/04 14:04:58;;;;;;;;;0.00;0.00;;;;;17.84;58.82;100127.50;6290845;20;2724255;-57
2022/10/04 14:08:20;;;;;;;;;3.67;3.00;;;;;18.06;57.73;100130.13;6346635;20;2741964;-55
2022/10/04 14:10:57;;;;;;;;;2.00;2.00;;;;;18.08;58.26;100130.84;6339174;20;2742113;-55
2022/10/04 14:14:13;;;;;;;;;2.00;2.00;;;;;17.87;56.43;100128.09;6339768;20;2752364;-53
2022/10/04 14:17:22;;;;;;;;;2.00;2.00;;;;;17.71;57.48;100135.81;6339451;20;2748597;-54
2022/10/04 14:20:56;;;;;;;;;3.67;2.00;;;;;17.74;58.19;100130.97;6336943;20;2753474;-55
2022/10/04 14:24:33;;;;;;;;;8.50;8.50;;;;;17.61;58.02;100132.13;6342284;20;2747182;-57
2022/10/04 14:27:57;;;;;;;;;3.00;3.00;;;;;17.51;58.49;100132.06;6313118;20;2727775;-55
2022/10/04 14:31:11;;;;;;;;;2.00;2.00;;;;;17.55;57.92;100133.50;6338732;20;2735745;-56